Terminal Aerodrome Forecast
Issued by NWS

Home | Current Version | Previous Version | Text Only | Print | Product List | Glossary On
Versions: 1 2 3 4 5 6 7 8 9 10 11 12 13 14 15 16 17 18 19 20 21 22 23 24 25 26 27 28 29 30 31 32 33 34 35 36
000
FTUS42 KILM 191305 AAA
TAFCRE
TAF AMD
KCRE 191305Z 1913/2012 18024G33KT 2SM SHRA SCT015 BKN025 OVC040
      TEMPO 1914/1918 VRB25G45KT 3SM TSRA BKN015CB
     FM191900 18025G35KT P6SM -SHRA VCTS SCT015CB OVC025
     FM192200 19025G35KT 3SM TSRA BKN015CB OVC025
      TEMPO 1922/2002 VRB30G50KT 1SM TSRA OVC012CB
     FM200300 20017G27KT 6SM -SHRA OVC020=

USA.gov is the U.S. government's official web portal to all federal, state and local government web resources and services.